Time;durP1;ratioP1;P1;durP2;ratioP2;P2;SDS_P1;SDS_P2;PMS_P1;PMS_P2;Temp;Humidity;BMP_temperature;BMP_pressure;BME280_temperature;BME280_humidity;BME280_pressure;Samples;Min_cycle;Max_cycle;Signal;HPM_P1;HPM_P2
2022/01/30 18:59:47;;;;;;;0.40;0.40;;;;;;;1.50;58.30;93996.16;2614801;47;20150;-76
2022/01/30 19:22:33;;;;;;;0.67;0.67;;;;;;;0.72;57.29;93907.47;2614002;47;20184;-73
2022/01/30 19:25:26;;;;;;;0.80;0.80;;;;;;;1.40;56.53;93985.88;2613762;54;20716;-73
2022/01/30 19:27:55;;;;;;;0.63;0.63;;;;;;;3.14;56.44;94228.53;2613665;46;20188;-71
2022/01/30 19:30:24;;;;;;;0.50;0.50;;;;;;;2.82;57.86;94154.81;2614357;47;20180;-71
2022/01/30 19:33:03;;;;;;;0.73;0.73;;;;;;;3.65;55.06;94278.78;2615490;54;20772;-72
2022/01/30 19:35:33;;;;;;;0.30;0.30;;;;;;;3.39;55.00;94231.25;2616021;54;20697;-72
2022/01/30 19:38:02;;;;;;;0.80;0.80;;;;;;;3.99;54.48;94286.13;2615599;54;20522;-72
2022/01/30 19:40:32;;;;;;;0.40;0.40;;;;;;;3.96;54.28;94287.38;2616234;54;20156;-71
2022/01/30 19:43:01;;;;;;;2.67;0.80;;;;;;;3.97;55.38;94308.44;2616330;39;20655;-72
2022/01/30 19:45:34;;;;;;;0.90;0.90;;;;;;;3.48;54.36;94258.31;2616281;46;20180;-72
2022/01/30 19:48:15;;;;;;;1.67;1.13;;;;;;;3.74;54.89;94300.25;2615963;47;20165;-72
2022/01/30 19:50:44;;;;;;;0.87;0.87;;;;;;;3.78;55.01;94308.84;2615822;54;20164;-72
2022/01/30 19:53:13;;;;;;;0.50;0.50;;;;;;;3.42;55.79;94263.59;2616107;47;20163;-74
2022/01/30 19:55:42;;;;;;;3.00;0.63;;;;;;;3.34;55.24;94263.19;2615892;54;20156;-73
2022/01/30 19:58:11;;;;;;;0.43;0.43;;;;;;;3.21;56.70;94241.50;2616002;47;20205;-73
2022/01/30 20:00:47;;;;;;;1.20;1.20;;;;;;;3.78;55.99;94306.78;2615714;54;20483;-72
2022/01/30 20:03:24;;;;;;;1.07;1.07;;;;;;;3.70;55.25;94303.53;2616057;47;20149;-74
2022/01/30 20:05:54;;;;;;;0.70;0.70;;;;;;;3.54;57.36;94283.13;2615413;54;20449;-72
2022/01/30 20:08:25;;;;;;;0.30;0.30;;;;;;;3.82;55.17;94309.06;2615751;39;20559;-73
2022/01/30 20:10:54;;;;;;;0.93;0.93;;;;;;;3.62;57.34;94263.19;2616048;54;20157;-72
2022/01/30 20:13:27;;;;;;;0.40;0.40;;;;;;;3.96;54.74;94306.28;2615987;54;20157;-72
2022/01/30 20:19:27;;;;;;;0.57;0.57;;;;;;;3.93;56.39;94334.19;2614954;46;20162;-74
2022/01/30 20:22:14;;;;;;;0.43;0.43;;;;;;;1.03;55.35;93930.13;2615151;54;20159;-73
2022/01/30 20:24:43;;;;;;;0.30;0.30;;;;;;;3.18;57.43;94225.94;2615283;47;20283;-72
2022/01/30 20:27:12;;;;;;;0.73;0.73;;;;;;;3.92;56.71;94323.59;2615204;54;20212;-72
2022/01/30 20:29:40;;;;;;;0.60;0.60;;;;;;;3.78;56.56;94303.25;2615425;54;20281;-74
2022/01/30 20:32:10;;;;;;;0.50;0.50;;;;;;;3.72;56.34;94312.06;2615367;39;20898;-73
2022/01/30 20:34:56;;;;;;;0.40;0.40;;;;;;;3.40;56.49;94263.50;2615398;54;20164;-73
2022/01/30 20:37:25;;;;;;;0.73;0.73;;;;;;;3.71;59.05;94293.06;2615129;54;20166;-73
2022/01/30 20:39:54;;;;;;;0.70;0.70;;;;;;;3.76;58.11;94303.16;2615790;47;20644;-73
2022/01/30 20:42:23;;;;;;;10.60;1.27;;;;;;;3.62;56.18;94272.34;2615633;47;20183;-74
2022/01/30 20:44:51;;;;;;;1.27;1.27;;;;;;;3.20;56.82;94242.84;2615422;54;20195;-74
2022/01/30 20:50:27;;;;;;;0.30;0.30;;;;;;;3.43;57.43;94289.50;2615253;47;20157;-74
2022/01/30 20:53:08;;;;;;;0.50;0.50;;;;;;;3.64;58.08;94322.84;2614941;54;20276;-74
2022/01/30 20:55:37;;;;;;;0.53;0.53;;;;;;;1.96;57.66;94084.50;2615665;47;20182;-74
2022/01/30 20:58:06;;;;;;;1.13;1.13;;;;;;;2.69;57.85;94189.06;2615224;54;20188;-73
2022/01/30 21:00:38;;;;;;;0.30;0.30;;;;;;;3.35;57.58;94287.03;2614716;47;20175;-74
2022/01/30 21:03:10;;;;;;;16.10;2.93;;;;;;;3.40;56.69;94321.56;2614950;54;20249;-74
2022/01/30 21:18:56;;;;;;;1.53;1.33;;;;;;;3.25;57.36;94322.16;2613175;47;20639;-74
2022/01/30 21:21:28;;;;;;;0.80;0.80;;;;;;;2.47;57.69;94222.13;2612988;47;20156;-75
2022/01/30 21:30:30;;;;;;;0.60;0.60;;;;;;;1.87;56.62;94158.75;2611945;54;20745;-73
2022/01/30 21:39:40;;;;;;;0.40;0.40;;;;;;;2.93;56.55;94287.53;2613266;47;20196;-73
2022/01/30 21:42:09;;;;;;;0.30;0.30;;;;;;;2.92;56.45;94300.06;2613931;54;20149;-73
2022/01/30 21:44:38;;;;;;;1.50;1.40;;;;;;;3.05;55.80;94314.09;2614902;47;20164;-73
2022/01/30 21:47:38;;;;;;;0.93;0.93;;;;;;;1.83;56.13;94175.25;2614556;54;20173;-72
2022/01/30 21:53:53;;;;;;;0.20;0.20;;;;;;;0.69;56.00;93967.91;2612874;39;20662;-72
2022/01/30 21:56:22;;;;;;;0.30;0.30;;;;;;;2.92;56.96;94294.47;2612996;54;20226;-74
2022/01/30 21:59:14;;;;;;;0.30;0.30;;;;;;;2.23;57.72;94173.28;2613577;54;20203;-72
2022/01/30 22:01:42;;;;;;;1.07;0.37;;;;;;;3.53;56.86;94318.78;2613975;54;20260;-72
2022/01/30 22:04:11;;;;;;;1.03;1.03;;;;;;;3.61;55.41;94312.16;2614930;54;20157;-73
2022/01/30 22:06:40;;;;;;;0.50;0.50;;;;;;;3.57;55.45;94313.38;2615198;47;20716;-73
2022/01/30 22:09:17;;;;;;;1.10;1.00;;;;;;;3.10;56.35;94228.31;2614253;54;20404;-72
2022/01/30 22:11:52;;;;;;;3.00;1.20;;;;;;;3.40;54.54;94248.78;2613686;47;20388;-73
2022/01/30 22:17:35;;;;;;;0.70;0.70;;;;;;;2.12;54.63;94128.03;2614156;47;20165;-72
2022/01/30 22:20:06;;;;;;;0.80;0.80;;;;;;;3.19;54.64;94298.06;2612661;54;20729;-73
2022/01/30 22:25:19;;;;;;;1.10;1.10;;;;;;;3.26;55.35;94295.63;2613164;47;20180;-73
2022/01/30 22:27:48;;;;;;;0.30;0.30;;;;;;;3.24;54.83;94292.72;2613977;54;20184;-72
2022/01/30 22:33:05;;;;;;;0.43;0.43;;;;;;;2.95;55.32;94243.63;2614406;47;20165;-74
2022/01/30 22:38:39;;;;;;;0.70;0.70;;;;;;;1.05;55.67;94002.03;2614230;47;20188;-73
2022/01/30 22:41:24;;;;;;;0.47;0.47;;;;;;;3.33;55.99;94292.50;2614791;54;20677;-73
2022/01/30 22:44:03;;;;;;;0.93;0.93;;;;;;;2.69;56.13;94214.97;2615164;54;20164;-73
2022/01/30 22:46:59;;;;;;;0.50;0.50;;;;;;;2.13;56.23;94184.63;2614844;47;20154;-73
2022/01/30 22:49:32;;;;;;;2.37;1.23;;;;;;;2.00;56.56;94135.00;2614680;54;20165;-73
2022/01/30 22:52:01;;;;;;;0.50;0.50;;;;;;;2.98;56.55;94280.81;2616356;54;20157;-73
2022/01/30 22:54:29;;;;;;;0.70;0.70;;;;;;;2.60;56.61;94210.25;2616230;54;20165;-73
2022/01/30 22:57:02;;;;;;;0.60;0.60;;;;;;;2.47;56.52;94211.66;2616202;47;20147;-74
2022/01/30 22:59:40;;;;;;;;;;;;;;;;;;;;;
2022/01/30 23:02:14;;;;;;;1.13;1.13;;;;;;;2.84;57.69;94270.31;2616124;54;20172;-73
2022/01/30 23:04:46;;;;;;;4.53;1.80;;;;;;;2.11;55.92;94212.44;2616024;54;20157;-72
2022/01/30 23:07:17;;;;;;;1.00;0.90;;;;;;;2.54;55.74;94246.28;2616101;54;21275;-71
2022/01/30 23:09:54;;;;;;;1.33;1.23;;;;;;;2.70;56.81;94277.19;2615846;47;20161;-72
2022/01/30 23:12:28;;;;;;;0.73;0.73;;;;;;;1.68;57.21;94125.53;2616840;39;20560;-73
2022/01/30 23:15:06;;;;;;;0.50;0.50;;;;;;;2.01;56.81;94178.34;2615518;47;20184;-73
2022/01/30 23:17:34;;;;;;;0.20;0.20;;;;;;;2.81;56.37;94287.59;2616027;54;20156;-72
2022/01/30 23:20:03;;;;;;;0.30;0.30;;;;;;;2.82;56.39;94275.81;2614431;54;20186;-72
2022/01/30 23:22:32;;;;;;;0.87;0.87;;;;;;;2.05;55.81;94178.59;2615488;47;20275;-71
2022/01/30 23:25:00;;;;;;;0.43;0.43;;;;;;;2.58;56.92;94293.31;2615624;54;20169;-72
2022/01/30 23:27:41;;;;;;;0.50;0.50;;;;;;;1.83;57.78;94194.78;2615361;54;20168;-72
2022/01/30 23:30:13;;;;;;;0.50;0.50;;;;;;;2.51;56.86;94244.69;2614983;54;20156;-72
2022/01/30 23:32:41;;;;;;;0.47;0.47;;;;;;;2.46;55.69;94246.53;2617202;54;20161;-72
2022/01/30 23:35:11;;;;;;;0.40;0.40;;;;;;;3.01;56.20;94299.16;2616874;54;20202;-71
2022/01/30 23:37:40;;;;;;;2.23;1.63;;;;;;;2.10;54.60;94230.53;2617047;39;20557;-71
2022/01/30 23:40:11;;;;;;;0.60;0.60;;;;;;;2.58;55.09;94312.88;2616449;54;20184;-72
2022/01/30 23:42:54;;;;;;;0.87;0.87;;;;;;;2.14;57.87;94225.19;2615992;47;20153;-72
2022/01/30 23:45:24;;;;;;;0.40;0.40;;;;;;;2.71;56.47;94309.41;2616078;54;20160;-71
2022/01/30 23:47:54;;;;;;;0.67;0.67;;;;;;;2.44;56.59;94260.44;2616597;54;20157;-72
2022/01/30 23:53:06;;;;;;;0.70;0.70;;;;;;;2.60;56.22;94285.72;2615818;47;20662;-71
2022/01/30 23:55:36;;;;;;;4.53;0.77;;;;;;;1.54;55.11;94167.31;2615973;47;20168;-72
2022/01/30 23:58:08;;;;;;;0.30;0.30;;;;;;;1.98;58.44;94211.03;2615544;48;20152;-73
